Time;durP1;ratioP1;P1;durP2;ratioP2;P2;SDS_P1;SDS_P2;PMS_P1;PMS_P2;Temp;Humidity;BMP_temperature;BMP_pressure;BME280_temperature;BME280_humidity;BME280_pressure;Samples;Min_cycle;Max_cycle;Signal;HPM_P1;HPM_P2
2023/06/14 00:00:40;;;;;;;10.97;6.80;;;21.60;1.00;;;;;;5027784;28;20181;-77
2023/06/14 00:03:11;;;;;;;9.43;6.53;;;21.60;1.00;;;;;;5023596;28;20181;-75
2023/06/14 00:05:42;;;;;;;10.33;6.53;;;21.60;1.00;;;;;;5030182;28;21028;-74
2023/06/14 00:08:09;;;;;;;9.40;6.60;;;21.60;1.00;;;;;;5030371;28;20446;-74
2023/06/14 00:10:40;;;;;;;13.83;6.43;;;21.60;1.00;;;;;;5031739;28;20429;-76
2023/06/14 00:13:07;;;;;;;7.53;6.67;;;21.60;1.00;;;;;;5030818;28;20744;-75
2023/06/14 00:15:33;;;;;;;8.63;6.70;;;21.60;1.00;;;;;;5032055;28;20531;-74
2023/06/14 00:18:01;;;;;;;7.53;6.17;;;21.60;1.00;;;;;;5032608;28;20507;-75
2023/06/14 00:20:27;;;;;;;14.47;7.10;;;21.50;1.00;;;;;;5030849;28;20678;-75
2023/06/14 00:22:55;;;;;;;8.70;6.70;;;21.50;1.00;;;;;;5028731;28;20431;-75
2023/06/14 00:25:22;;;;;;;12.00;7.40;;;21.50;1.00;;;;;;5031559;28;20468;-74
2023/06/14 00:27:48;;;;;;;8.63;6.70;;;21.50;1.00;;;;;;5031541;28;20515;-74
2023/06/14 00:30:14;;;;;;;11.40;7.20;;;21.50;1.00;;;;;;5030101;28;20857;-77
2023/06/14 00:32:40;;;;;;;11.53;7.37;;;22.60;1.00;;;;;;5025647;28;20523;-75
2023/06/14 00:35:07;;;;;;;8.67;7.10;;;21.40;1.00;;;;;;5031755;28;20208;-74
2023/06/14 00:37:33;;;;;;;9.30;6.57;;;21.40;1.00;;;;;;5030631;28;20255;-73
2023/06/14 00:39:58;;;;;;;8.33;6.73;;;21.40;1.00;;;;;;5031859;28;20443;-74
2023/06/14 00:42:25;;;;;;;9.60;7.73;;;21.40;1.00;;;;;;5031902;28;20452;-75
2023/06/14 00:44:51;;;;;;;11.33;7.60;;;21.40;1.00;;;;;;5030932;28;20240;-76
2023/06/14 00:47:16;;;;;;;10.53;6.80;;;21.60;1.00;;;;;;5030420;28;20471;-75
2023/06/14 00:49:42;;;;;;;8.40;6.90;;;21.40;1.00;;;;;;5030963;28;20185;-75
2023/06/14 00:52:12;;;;;;;15.50;7.10;;;21.40;1.00;;;;;;5031506;28;20185;-74
2023/06/14 00:54:37;;;;;;;10.93;7.27;;;21.40;1.00;;;;;;5031259;28;20204;-74
2023/06/14 00:57:03;;;;;;;7.60;6.80;;;21.40;1.00;;;;;;5025703;28;20432;-74
2023/06/14 00:59:29;;;;;;;9.00;6.80;;;21.40;1.00;;;;;;5030249;28;20193;-76
2023/06/14 01:01:54;;;;;;;7.77;6.73;;;21.30;1.00;;;;;;5029416;28;20189;-75
2023/06/14 01:04:20;;;;;;;8.50;6.43;;;21.40;1.00;;;;;;5031564;28;20212;-74
2023/06/14 01:06:54;;;;;;;11.17;6.60;;;21.40;1.00;;;;;;5031127;28;20192;-75
2023/06/14 01:09:36;;;;;;;11.60;6.40;;;21.30;1.00;;;;;;5031443;28;20192;-77
2023/06/14 01:12:17;;;;;;;8.00;6.50;;;21.30;1.00;;;;;;5022799;28;20922;-75
2023/06/14 01:14:43;;;;;;;7.90;6.50;;;21.30;1.00;;;;;;5030765;28;20455;-74
2023/06/14 01:17:16;;;;;;;11.30;7.30;;;21.30;1.00;;;;;;5030516;28;20448;-75
2023/06/14 01:19:44;;;;;;;16.60;7.67;;;21.20;1.00;;;;;;5030289;28;20840;-75
2023/06/14 01:22:10;;;;;;;13.80;7.10;;;21.20;1.00;;;;;;5026122;28;20436;-75
2023/06/14 01:24:36;;;;;;;9.20;6.60;;;21.20;1.00;;;;;;5030190;28;20800;-75
2023/06/14 01:27:03;;;;;;;10.07;7.03;;;21.20;1.00;;;;;;5030783;28;20481;-74
2023/06/14 01:29:32;;;;;;;9.90;6.80;;;21.20;1.00;;;;;;5030764;28;20177;-75
2023/06/14 01:32:01;;;;;;;12.60;7.23;;;21.20;1.00;;;;;;5028995;28;20541;-75
2023/06/14 01:34:27;;;;;;;13.80;7.20;;;21.10;1.00;;;;;;5030596;28;20981;-76
2023/06/14 01:36:57;;;;;;;13.33;6.50;;;21.10;1.00;;;;;;5029853;28;20432;-76
2023/06/14 01:39:23;;;;;;;9.17;6.53;;;21.10;1.00;;;;;;5030395;28;20197;-75
2023/06/14 01:41:50;;;;;;;11.87;6.63;;;21.10;1.00;;;;;;5028025;28;20424;-75
2023/06/14 01:44:18;;;;;;;12.00;6.93;;;21.10;1.00;;;;;;5030287;28;20495;-73
2023/06/14 01:46:45;;;;;;;11.73;6.27;;;21.10;1.00;;;;;;5028486;28;20853;-76
2023/06/14 01:49:11;;;;;;;16.77;6.80;;;21.10;1.00;;;;;;5030359;28;20513;-74
2023/06/14 01:51:36;;;;;;;12.53;6.83;;;21.00;1.00;;;;;;5029936;28;20427;-72
2023/06/14 01:54:02;;;;;;;8.93;6.40;;;21.00;1.00;;;;;;5030434;28;20436;-77
2023/06/14 01:56:27;;;;;;;8.90;6.70;;;21.00;1.00;;;;;;5029774;28;20189;-75
2023/06/14 01:58:53;;;;;;;10.77;7.00;;;21.00;1.00;;;;;;5030170;28;20722;-74
2023/06/14 02:01:21;;;;;;;11.60;7.10;;;20.90;1.00;;;;;;5029105;28;20185;-75
2023/06/14 02:03:48;;;;;;;12.13;6.40;;;20.90;1.00;;;;;;5029805;28;20252;-75
2023/06/14 02:06:13;;;;;;;11.30;6.33;;;20.90;1.00;;;;;;5030168;28;20451;-75
2023/06/14 02:08:39;;;;;;;8.43;6.93;;;20.90;1.00;;;;;;5030055;28;20925;-74
2023/06/14 02:11:05;;;;;;;9.50;6.73;;;20.90;1.00;;;;;;5028120;28;20231;-75
2023/06/14 02:13:30;;;;;;;12.03;6.70;;;20.90;1.00;;;;;;5029180;28;20435;-75
2023/06/14 02:15:57;;;;;;;15.07;7.00;;;20.90;1.00;;;;;;5029547;28;20580;-75
2023/06/14 02:18:23;;;;;;;13.23;7.07;;;20.90;1.00;;;;;;5030230;28;20186;-74
2023/06/14 02:20:48;;;;;;;8.73;6.70;;;20.80;1.00;;;;;;5029359;28;20424;-75
2023/06/14 02:23:14;;;;;;;13.20;6.63;;;20.80;1.00;;;;;;5029734;28;20487;-75
2023/06/14 02:25:40;;;;;;;11.47;6.87;;;20.70;1.00;;;;;;5029023;28;20564;-74
2023/06/14 02:28:06;;;;;;;12.40;7.10;;;20.70;1.00;;;;;;5029818;28;20257;-75
2023/06/14 02:30:31;;;;;;;8.97;6.80;;;20.70;1.00;;;;;;5029291;28;20212;-75
2023/06/14 02:32:57;;;;;;;9.63;6.40;;;20.70;1.00;;;;;;5028393;28;20203;-75
2023/06/14 02:35:26;;;;;;;10.27;6.90;;;20.70;1.00;;;;;;5029439;28;20205;-76
2023/06/14 02:37:52;;;;;;;11.70;6.70;;;20.60;1.00;;;;;;5027417;28;20267;-75
2023/06/14 02:40:18;;;;;;;9.50;6.27;;;20.60;1.00;;;;;;5029303;28;20877;-75
2023/06/14 02:42:44;;;;;;;10.80;6.97;;;20.60;1.00;;;;;;5029091;28;20786;-75
2023/06/14 02:45:09;;;;;;;10.87;7.17;;;20.60;1.00;;;;;;5028740;28;20467;-75
2023/06/14 02:47:35;;;;;;;9.03;6.23;;;20.60;1.00;;;;;;5029336;28;20178;-76
2023/06/14 02:50:00;;;;;;;8.73;6.90;;;20.50;1.00;;;;;;5027260;28;20540;-75
2023/06/14 02:52:26;;;;;;;9.40;7.10;;;20.50;1.00;;;;;;5028401;28;20177;-75
2023/06/14 02:54:51;;;;;;;10.40;6.53;;;20.50;1.00;;;;;;5027540;28;20217;-75
2023/06/14 02:57:17;;;;;;;8.07;6.50;;;20.40;1.00;;;;;;5029303;28;20181;-76
2023/06/14 02:59:43;;;;;;;9.27;6.97;;;20.40;1.00;;;;;;5028477;28;20710;-76
2023/06/14 03:02:08;;;;;;;8.60;6.73;;;20.30;1.00;;;;;;5027653;28;20192;-75
2023/06/14 03:04:36;;;;;;;11.00;7.20;;;20.20;1.00;;;;;;5029012;28;20251;-75
2023/06/14 03:07:08;;;;;;;9.20;7.07;;;20.20;1.00;;;;;;5028285;28;20174;-75
2023/06/14 03:09:37;;;;;;;10.67;7.20;;;20.20;1.00;;;;;;5029020;28;20419;-76
2023/06/14 03:12:06;;;;;;;9.10;6.70;;;18.70;1.00;;;;;;5028710;28;20427;-75
2023/06/14 03:14:32;;;;;;;9.47;6.93;;;20.00;1.00;;;;;;5024382;28;20447;-75
2023/06/14 03:16:58;;;;;;;11.60;7.20;;;19.90;1.00;;;;;;5027438;28;20462;-74
2023/06/14 03:19:25;;;;;;;10.10;6.40;;;19.70;1.00;;;;;;5028899;28;20188;-75
2023/06/14 03:21:51;;;;;;;12.87;7.17;;;19.50;1.00;;;;;;5021830;28;20523;-76
2023/06/14 03:24:17;;;;;;;12.00;7.10;;;19.30;1.00;;;;;;5028376;28;20467;-76
2023/06/14 03:26:43;;;;;;;12.70;7.10;;;19.20;1.00;;;;;;5026594;28;20814;-75
2023/06/14 03:29:08;;;;;;;11.00;7.53;;;19.00;1.00;;;;;;5028737;28;20684;-75
2023/06/14 03:31:35;;;;;;;12.13;6.70;;;19.00;1.00;;;;;;5027657;28;20528;-76
2023/06/14 03:34:01;;;;;;;8.57;6.70;;;19.60;1.00;;;;;;5027530;28;20703;-74
2023/06/14 03:36:27;;;;;;;8.50;6.50;;;19.60;1.00;;;;;;5032228;28;20509;-76
2023/06/14 03:38:54;;;;;;;10.40;7.27;;;22.80;1.00;;;;;;5031003;28;20449;-75
2023/06/14 03:41:19;;;;;;;7.93;6.90;;;20.00;1.00;;;;;;5030213;28;20502;-75
2023/06/14 03:43:45;;;;;;;9.20;7.30;;;20.00;1.00;;;;;;5030088;28;21028;-73
2023/06/14 03:46:10;;;;;;;16.73;6.70;;;20.20;1.00;;;;;;5031648;28;20607;-77
2023/06/14 03:48:36;;;;;;;10.07;7.90;;;20.20;1.00;;;;;;5030836;28;20177;-76
2023/06/14 03:51:02;;;;;;;10.17;6.97;;;20.10;1.00;;;;;;5029579;28;20203;-75
2023/06/14 03:53:29;;;;;;;11.77;7.20;;;20.00;1.00;;;;;;5031005;28;20185;-76
2023/06/14 03:55:54;;;;;;;16.00;7.57;;;19.90;1.00;;;;;;5031219;28;20205;-76
2023/06/14 03:58:20;;;;;;;9.00;6.87;;;19.80;1.00;;;;;;5056322;22;20498;-73
2023/06/14 04:00:46;;;;;;;9.87;7.10;;;19.80;1.00;;;;;;5034078;28;20207;-74
2023/06/14 04:03:15;;;;;;;17.03;7.60;;;19.70;1.00;;;;;;5042821;28;20191;-73
2023/06/14 04:05:49;;;;;;;12.23;7.50;;;19.60;1.00;;;;;;5048528;28;20439;-73
2023/06/14 04:08:15;;;;;;;10.33;6.80;;;19.60;1.00;;;;;;5036624;28;20431;-72
2023/06/14 04:10:40;;;;;;;15.10;7.80;;;19.50;1.00;;;;;;5043178;28;20437;-70
2023/06/14 04:13:07;;;;;;;10.90;7.50;;;19.50;1.00;;;;;;5051233;28;20419;-73
2023/06/14 04:15:33;;;;;;;8.10;6.70;;;19.40;1.00;;;;;;5048390;28;20184;-73
2023/06/14 04:17:58;;;;;;;9.23;7.20;;;19.40;1.00;;;;;;5038388;28;20522;-72
2023/06/14 04:20:24;;;;;;;8.77;7.20;;;19.40;1.00;;;;;;5045034;28;20570;-73
2023/06/14 04:22:50;;;;;;;10.63;7.87;;;19.30;1.00;;;;;;5036498;28;20667;-73
2023/06/14 04:25:16;;;;;;;11.67;8.20;;;19.30;1.00;;;;;;5035317;28;20616;-73
2023/06/14 04:27:43;;;;;;;9.20;7.70;;;19.10;1.00;;;;;;5044145;28;20911;-73
2023/06/14 04:30:09;;;;;;;12.03;8.17;;;19.00;1.00;;;;;;5049365;28;20180;-73
2023/06/14 04:32:38;;;;;;;11.17;8.20;;;19.00;1.00;;;;;;5037862;28;20427;-73
2023/06/14 04:35:07;;;;;;;12.93;8.17;;;18.90;1.00;;;;;;5045590;28;20469;-72
2023/06/14 04:37:33;;;;;;;11.63;7.73;;;18.90;1.00;;;;;;5045675;28;20423;-73
2023/06/14 04:39:58;;;;;;;10.57;7.87;;;18.80;1.00;;;;;;5049032;28;20950;-74
2023/06/14 04:42:31;;;;;;;13.63;7.80;;;18.70;1.00;;;;;;5040183;28;20309;-72
2023/06/14 04:44:57;;;;;;;10.17;7.50;;;18.50;1.00;;;;;;5048175;28;20575;-73
2023/06/14 04:47:24;;;;;;;10.33;7.97;;;18.60;1.00;;;;;;5047121;28;20434;-74
2023/06/14 04:49:52;;;;;;;11.00;8.70;;;18.70;1.00;;;;;;5047863;28;21075;-72
2023/06/14 04:52:20;;;;;;;10.47;7.90;;;18.60;1.00;;;;;;5034141;28;20931;-73
2023/06/14 04:54:46;;;;;;;13.13;8.40;;;18.50;1.00;;;;;;5030813;28;20431;-73
2023/06/14 04:57:13;;;;;;;14.97;8.90;;;18.50;1.00;;;;;;5032837;28;20443;-71
2023/06/14 04:59:39;;;;;;;15.37;8.60;;;18.50;1.00;;;;;;5041677;28;20251;-72
2023/06/14 05:02:06;;;;;;;11.57;8.40;;;18.50;1.00;;;;;;5029584;28;20984;-73
2023/06/14 05:04:32;;;;;;;11.50;9.70;;;18.50;1.00;;;;;;5037983;28;20542;-73
2023/06/14 05:06:58;;;;;;;13.00;9.13;;;18.50;1.00;;;;;;5030452;28;20531;-73
2023/06/14 05:09:23;;;;;;;12.43;8.93;;;18.40;1.00;;;;;;5049140;28;20656;-72
2023/06/14 05:11:50;;;;;;;15.13;9.10;;;18.50;1.00;;;;;;5049888;28;20173;-72
2023/06/14 05:14:16;;;;;;;10.90;8.63;;;18.50;1.00;;;;;;5050584;28;20551;-72
2023/06/14 05:16:41;;;;;;;12.50;8.80;;;19.00;1.00;;;;;;5042435;28;20439;-72
2023/06/14 05:19:07;;;;;;;13.93;9.13;;;18.50;1.00;;;;;;5049797;28;20286;-73
2023/06/14 05:21:34;;;;;;;10.80;8.77;;;18.50;1.00;;;;;;5039792;28;20288;-73
2023/06/14 05:24:00;;;;;;;13.83;9.67;;;18.60;1.00;;;;;;5028524;28;20209;-73
2023/06/14 05:26:29;;;;;;;13.83;9.30;;;18.60;1.00;;;;;;5041582;28;20438;-72
2023/06/14 05:28:56;;;;;;;14.07;9.30;;;18.70;1.00;;;;;;5049735;28;21011;-72
2023/06/14 05:31:23;;;;;;;14.40;9.57;;;18.70;1.00;;;;;;5044636;28;20505;-73
2023/06/14 05:33:49;;;;;;;10.50;8.93;;;18.70;1.00;;;;;;5041802;28;21974;-73
2023/06/14 05:36:15;;;;;;;18.60;9.10;;;18.70;1.00;;;;;;5030430;28;20469;-74
2023/06/14 05:38:40;;;;;;;16.90;8.83;;;18.80;1.00;;;;;;5036951;28;20205;-73
2023/06/14 05:41:06;;;;;;;17.13;9.00;;;18.80;1.00;;;;;;5041410;28;20299;-73
2023/06/14 05:43:31;;;;;;;13.53;8.93;;;18.90;1.00;;;;;;5041602;28;20184;-73
2023/06/14 05:45:57;;;;;;;11.10;9.53;;;19.00;1.00;;;;;;5037723;28;20189;-73
2023/06/14 05:48:22;;;;;;;16.10;9.93;;;19.00;1.00;;;;;;5028317;28;20205;-73
2023/06/14 05:50:48;;;;;;;11.63;9.20;;;19.10;1.00;;;;;;5037746;28;20185;-73
2023/06/14 05:53:13;;;;;;;11.07;8.93;;;19.00;1.00;;;;;;5029251;28;20177;-72
2023/06/14 05:55:39;;;;;;;11.97;9.07;;;18.90;1.00;;;;;;5034158;28;20628;-73
2023/06/14 05:58:04;;;;;;;12.27;8.53;;;19.10;1.00;;;;;;5037450;28;20208;-73
2023/06/14 06:00:30;;;;;;;14.83;8.97;;;19.20;1.00;;;;;;5034144;28;20307;-72
2023/06/14 06:02:57;;;;;;;15.00;9.30;;;19.30;1.00;;;;;;5061620;28;20216;-72
2023/06/14 06:05:23;;;;;;;9.83;8.00;;;19.40;1.00;;;;;;5037133;28;20287;-73
2023/06/14 06:07:49;;;;;;;14.17;8.50;;;19.70;1.00;;;;;;5038573;28;20869;-73
2023/06/14 06:10:15;;;;;;;14.10;8.47;;;;;;;;;;5034077;28;20191;-73
2023/06/14 06:12:42;;;;;;;14.77;8.90;;;19.70;1.00;;;;;;5039406;28;20434;-73
2023/06/14 06:15:11;;;;;;;12.10;8.40;;;19.80;1.00;;;;;;5045885;28;20185;-73
2023/06/14 06:17:37;;;;;;;11.93;8.60;;;19.90;1.00;;;;;;5029625;28;20997;-73
2023/06/14 06:20:05;;;;;;;16.43;8.77;;;19.90;1.00;;;;;;5032554;28;20535;-73
2023/06/14 06:22:30;;;;;;;11.33;8.20;;;20.00;1.00;;;;;;5032809;28;20630;-72
2023/06/14 06:24:56;;;;;;;11.50;8.10;;;20.10;1.00;;;;;;5035106;28;20467;-73
2023/06/14 06:27:21;;;;;;;10.33;8.20;;;20.10;1.00;;;;;;5035370;28;20189;-73
2023/06/14 06:29:48;;;;;;;10.20;8.67;;;20.20;1.00;;;;;;5038867;28;20645;-73
2023/06/14 06:32:14;;;;;;;12.10;8.00;;;20.30;1.00;;;;;;5048833;28;20176;-73
2023/06/14 06:34:40;;;;;;;13.93;7.80;;;20.50;1.00;;;;;;5047395;28;20430;-73
2023/06/14 06:37:06;;;;;;;12.80;8.20;;;20.60;1.00;;;;;;5033391;28;20432;-72
2023/06/14 06:39:31;;;;;;;13.40;8.30;;;20.70;1.00;;;;;;5042381;28;20208;-73
2023/06/14 06:41:57;;;;;;;13.10;7.87;;;20.70;1.00;;;;;;5029819;28;20177;-72
2023/06/14 06:44:23;;;;;;;11.93;8.50;;;20.80;1.00;;;;;;5048770;28;20212;-73
2023/06/14 06:46:48;;;;;;;11.13;7.30;;;20.90;1.00;;;;;;5040618;28;20431;-73
2023/06/14 06:49:14;;;;;;;10.90;7.67;;;21.10;1.00;;;;;;5045465;28;20197;-72
2023/06/14 06:51:44;;;;;;;9.43;7.20;;;21.20;1.00;;;;;;5036654;28;20548;-73
2023/06/14 06:54:10;;;;;;;10.90;7.43;;;21.50;1.00;;;;;;5029059;28;20281;-73
2023/06/14 06:56:36;;;;;;;9.83;7.67;;;21.20;1.00;;;;;;5041036;28;20852;-73
2023/06/14 06:59:01;;;;;;;9.80;7.80;;;21.20;1.00;;;;;;5039931;28;20462;-73
2023/06/14 07:01:28;;;;;;;11.13;8.00;;;21.30;1.00;;;;;;5035766;28;20297;-73
2023/06/14 07:03:54;;;;;;;11.17;7.60;;;21.40;1.00;;;;;;5034338;28;20207;-74
2023/06/14 07:06:20;;;;;;;11.80;7.30;;;21.60;1.00;;;;;;5048169;28;20419;-73
2023/06/14 07:08:48;;;;;;;12.53;7.80;;;21.80;1.00;;;;;;5045915;28;20699;-73
2023/06/14 07:11:13;;;;;;;14.10;8.00;;;22.00;1.00;;;;;;5038241;28;20263;-73
2023/06/14 07:13:39;;;;;;;12.20;8.20;;;22.00;1.00;;;;;;5027022;28;20519;-71
2023/06/14 07:16:05;;;;;;;10.90;7.77;;;22.20;1.00;;;;;;5026869;28;20634;-72
2023/06/14 07:18:31;;;;;;;14.03;7.17;;;22.20;1.00;;;;;;5039876;28;20773;-72
2023/06/14 07:20:57;;;;;;;13.00;8.37;;;22.30;1.00;;;;;;5024147;28;20530;-73
2023/06/14 07:23:25;;;;;;;8.03;6.83;;;22.50;1.00;;;;;;5019767;28;20178;-71
2023/06/14 07:25:51;;;;;;;9.73;7.70;;;22.60;1.00;;;;;;5023338;28;20677;-71
2023/06/14 07:28:17;;;;;;;10.20;6.63;;;22.70;1.00;;;;;;5029476;28;20537;-73
2023/06/14 07:30:43;;;;;;;9.17;7.10;;;22.90;1.00;;;;;;5027793;28;20177;-71
2023/06/14 07:33:08;;;;;;;8.23;6.70;;;23.10;1.00;;;;;;5046285;28;20855;-69
2023/06/14 07:35:34;;;;;;;8.87;6.93;;;23.30;1.00;;;;;;5035002;28;20204;-68
2023/06/14 07:38:00;;;;;;;11.57;7.17;;;23.70;1.00;;;;;;5035291;28;20187;-69
2023/06/14 07:40:25;;;;;;;10.27;6.60;;;23.60;1.00;;;;;;5036564;28;20520;-70
2023/06/14 07:42:51;;;;;;;9.40;7.00;;;24.00;1.00;;;;;;5035849;28;20677;-72
2023/06/14 07:45:16;;;;;;;8.00;6.47;;;24.30;1.00;;;;;;5036172;28;20248;-71
2023/06/14 07:47:42;;;;;;;16.73;6.67;;;24.70;1.00;;;;;;5028914;28;20185;-71
2023/06/14 07:50:08;;;;;;;9.27;6.80;;;24.70;1.00;;;;;;5024944;28;20213;-71
2023/06/14 07:52:34;;;;;;;10.97;6.40;;;24.80;1.00;;;;;;5027248;28;20178;-72
2023/06/14 07:55:00;;;;;;;8.50;6.73;;;25.10;1.00;;;;;;5023084;28;20948;-73
2023/06/14 07:57:25;;;;;;;9.00;6.07;;;25.30;1.00;;;;;;5024324;28;20272;-72
2023/06/14 07:59:51;;;;;;;11.37;6.10;;;25.40;1.00;;;;;;5028614;28;20575;-72
2023/06/14 08:02:17;;;;;;;11.17;6.37;;;25.40;1.00;;;;;;5027519;28;20610;-72
2023/06/14 08:04:43;;;;;;;9.43;6.10;;;25.60;1.00;;;;;;5023295;28;20250;-71
2023/06/14 08:07:08;;;;;;;8.47;6.37;;;25.80;1.00;;;;;;5037473;28;20605;-72
2023/06/14 08:09:37;;;;;;;9.80;6.97;;;25.90;1.00;;;;;;5028341;28;20190;-73
2023/06/14 08:12:03;;;;;;;17.63;6.60;;;26.00;1.00;;;;;;5036120;28;20169;-72
2023/06/14 08:14:29;;;;;;;10.00;6.60;;;26.10;1.00;;;;;;5027808;28;20514;-72
2023/06/14 08:16:55;;;;;;;9.53;6.30;;;26.30;1.00;;;;;;5042937;28;20430;-72
2023/06/14 08:19:20;;;;;;;8.30;6.10;;;26.40;1.00;;;;;;5026567;28;20641;-75
2023/06/14 08:21:47;;;;;;;10.13;6.30;;;26.50;1.00;;;;;;5031284;28;20216;-71
2023/06/14 08:24:12;;;;;;;8.20;6.10;;;26.80;1.00;;;;;;5031104;28;20212;-73
2023/06/14 08:26:39;;;;;;;12.33;6.53;;;27.00;1.00;;;;;;5030651;28;20355;-72
2023/06/14 08:29:05;;;;;;;8.53;5.97;;;27.00;1.00;;;;;;5040195;28;20207;-72
2023/06/14 08:31:31;;;;;;;7.37;6.10;;;26.90;1.00;;;;;;5047228;28;20547;-72
2023/06/14 08:33:57;;;;;;;7.10;5.70;;;27.00;1.00;;;;;;5030819;28;20184;-74
2023/06/14 08:36:22;;;;;;;8.30;6.50;;;26.80;1.00;;;;;;5031134;28;20197;-72
2023/06/14 08:38:48;;;;;;;8.47;6.37;;;26.70;1.00;;;;;;5032587;28;20250;-74
2023/06/14 08:41:22;;;;;;;8.80;6.30;;;26.90;1.00;;;;;;5037279;28;20225;-74
2023/06/14 08:43:47;;;;;;;6.83;5.90;;;27.10;1.00;;;;;;5026305;28;20288;-73
2023/06/14 08:46:19;;;;;;;9.10;6.00;;;27.00;1.00;;;;;;5035124;28;20268;-72
2023/06/14 08:48:49;;;;;;;7.83;5.90;;;27.00;1.00;;;;;;5032171;28;20189;-71
2023/06/14 08:51:18;;;;;;;10.50;6.20;;;27.20;1.00;;;;;;5028159;28;20662;-72
2023/06/14 08:53:45;;;;;;;10.43;6.17;;;27.70;1.00;;;;;;5045638;28;20196;-72
2023/06/14 08:56:13;;;;;;;10.70;6.40;;;27.20;1.00;;;;;;5037433;28;20181;-72
2023/06/14 08:58:47;;;;;;;13.40;6.10;;;27.30;1.00;;;;;;5063483;28;20262;-72
2023/06/14 09:01:14;;;;;;;7.70;6.10;;;27.20;1.00;;;;;;5036507;28;20359;-71
2023/06/14 09:03:41;;;;;;;7.30;5.80;;;27.10;1.00;;;;;;5028039;28;20223;-71
2023/06/14 09:06:08;;;;;;;7.07;6.00;;;27.70;1.00;;;;;;5045904;28;20225;-72
2023/06/14 09:08:35;;;;;;;10.20;6.00;;;28.00;1.00;;;;;;5035797;28;20207;-72
2023/06/14 09:11:01;;;;;;;7.27;5.17;;;29.20;1.00;;;;;;5048894;28;20208;-71
2023/06/14 09:13:27;;;;;;;6.60;5.27;;;29.50;1.00;;;;;;5031889;28;20181;-72
2023/06/14 09:15:53;;;;;;;8.57;5.65;;;30.00;1.00;;;;;;5029183;28;20247;-72
2023/06/14 09:18:22;;;;;;;8.45;5.50;;;30.60;1.00;;;;;;5029609;28;20216;-73
2023/06/14 09:20:48;;;;;;;8.68;5.80;;;31.20;1.00;;;;;;5035709;28;20191;-72
2023/06/14 09:23:20;;;;;;;7.88;6.13;;;32.30;1.00;;;;;;5041734;28;20191;-72
2023/06/14 09:25:46;;;;;;;8.57;5.80;;;32.00;1.00;;;;;;5032959;28;20201;-74
2023/06/14 09:28:11;;;;;;;7.32;5.70;;;32.70;1.00;;;;;;5038461;28;20201;-73
2023/06/14 09:30:37;;;;;;;8.55;5.55;;;33.80;1.00;;;;;;5037329;28;20184;-74
2023/06/14 09:33:03;;;;;;;6.55;5.35;;;34.90;1.00;;;;;;5028397;28;20182;-74
2023/06/14 09:35:31;;;;;;;8.43;5.40;;;35.60;1.00;;;;;;5029455;28;20235;-73
2023/06/14 09:37:57;;;;;;;6.65;5.50;;;37.20;1.00;;;;;;5027913;28;20184;-73
2023/06/14 09:40:23;;;;;;;6.45;5.00;;;37.20;1.00;;;;;;5031970;28;20555;-73
2023/06/14 09:42:49;;;;;;;6.45;5.00;;;38.00;1.00;;;;;;5035140;28;20193;-74
2023/06/14 09:45:19;;;;;;;6.50;4.90;;;37.80;1.00;;;;;;5046878;28;20262;-73
2023/06/14 09:47:47;;;;;;;8.93;5.15;;;36.50;1.00;;;;;;5030136;28;20229;-73
2023/06/14 09:50:12;;;;;;;13.32;4.80;;;36.50;1.00;;;;;;5038223;28;20207;-73
2023/06/14 09:52:39;;;;;;;8.68;4.95;;;34.80;1.00;;;;;;5040909;28;20654;-73
2023/06/14 09:55:12;;;;;;;6.75;4.85;;;34.20;1.00;;;;;;5040806;28;20265;-72
2023/06/14 09:57:45;;;;;;;7.72;5.15;;;34.40;1.00;;;;;;5027636;28;20181;-72
2023/06/14 10:00:13;;;;;;;5.22;4.72;;;33.60;1.00;;;;;;5028017;28;20687;-73
2023/06/14 10:02:42;;;;;;;9.73;4.50;;;33.40;1.00;;;;;;5021822;28;20202;-73
2023/06/14 10:05:12;;;;;;;6.35;4.68;;;34.40;1.00;;;;;;5028873;28;20196;-71
2023/06/14 10:07:59;;;;;;;10.45;4.45;;;36.30;1.00;;;;;;5044343;28;20185;-73
2023/06/14 10:10:25;;;;;;;8.25;4.82;;;37.90;1.00;;;;;;5028998;28;20271;-73
2023/06/14 10:12:51;;;;;;;7.68;4.45;;;39.00;1.00;;;;;;5037109;28;20307;-73
2023/06/14 10:15:27;;;;;;;7.70;4.53;;;39.00;1.00;;;;;;5037700;28;20728;-74
2023/06/14 10:17:59;;;;;;;7.60;4.45;;;40.00;1.00;;;;;;5061425;28;20203;-73
2023/06/14 10:20:35;;;;;;;8.13;4.40;;;40.00;1.00;;;;;;5061595;28;20663;-73
2023/06/14 10:23:11;;;;;;;7.32;4.47;;;40.10;1.00;;;;;;5037509;28;20180;-72
2023/06/14 10:25:37;;;;;;;7.30;4.28;;;39.60;1.00;;;;;;5039735;28;20547;-73
2023/06/14 10:28:16;;;;;;;6.90;4.20;;;40.20;1.00;;;;;;5027195;28;20181;-73
2023/06/14 10:31:05;;;;;;;5.10;4.10;;;40.20;1.00;;;;;;5027831;28;20212;-73
2023/06/14 10:33:31;;;;;;;8.27;4.07;;;40.10;1.00;;;;;;5037474;28;20230;-75
2023/06/14 10:36:08;;;;;;;6.93;4.63;;;40.30;1.00;;;;;;5027989;28;20548;-74
2023/06/14 10:38:36;;;;;;;6.53;4.45;;;41.20;1.00;;;;;;5030510;28;20302;-75
2023/06/14 10:41:03;;;;;;;6.30;4.43;;;41.30;1.00;;;;;;5049115;28;20335;-72
2023/06/14 10:43:28;;;;;;;7.72;4.30;;;41.40;1.00;;;;;;5045083;28;20201;-74
2023/06/14 10:46:17;;;;;;;6.05;4.00;;;40.60;1.00;;;;;;5035660;28;20667;-74
2023/06/14 10:48:44;;;;;;;7.22;4.43;;;38.90;1.00;;;;;;5027444;28;20197;-73
2023/06/14 10:51:20;;;;;;;9.13;4.35;;;36.90;1.00;;;;;;5028842;28;20543;-73
2023/06/14 10:53:48;;;;;;;6.35;4.63;;;35.40;1.00;;;;;;5038263;28;20215;-73
2023/06/14 10:56:26;;;;;;;5.13;4.25;;;36.40;1.00;;;;;;5035180;28;20201;-74
2023/06/14 10:58:52;;;;;;;7.38;4.10;;;38.40;1.00;;;;;;5036466;28;20216;-74
2023/06/14 11:01:32;;;;;;;5.07;4.35;;;39.00;1.00;;;;;;5039487;28;20181;-74
2023/06/14 11:04:08;;;;;;;13.50;4.38;;;38.40;1.00;;;;;;5031882;28;20209;-73
2023/06/14 11:06:46;;;;;;;5.53;3.85;;;39.20;1.00;;;;;;5047915;28;20180;-74
2023/06/14 11:09:49;;;;;;;7.50;3.80;;;39.00;1.00;;;;;;5037161;28;20200;-74
2023/06/14 11:12:17;;;;;;;6.88;4.70;;;37.50;1.00;;;;;;5047492;28;20194;-72
2023/06/14 11:14:46;;;;;;;6.45;4.28;;;36.80;1.00;;;;;;5046046;28;20207;-72
2023/06/14 11:17:12;;;;;;;7.70;4.38;;;37.80;1.00;;;;;;5057932;28;20284;-72
2023/06/14 11:19:38;;;;;;;9.63;4.43;;;38.80;1.00;;;;;;5036957;28;20255;-71
2023/06/14 11:22:03;;;;;;;5.60;4.38;;;39.90;1.00;;;;;;5036506;28;20591;-72
2023/06/14 11:24:29;;;;;;;7.15;4.25;;;40.50;1.00;;;;;;5030254;28;20286;-72
2023/06/14 11:26:56;;;;;;;7.25;4.63;;;40.20;1.00;;;;;;5044305;28;20184;-72
2023/06/14 11:29:22;;;;;;;4.78;4.10;;;39.80;1.00;;;;;;5048972;28;20689;-72
2023/06/14 11:31:47;;;;;;;7.03;4.20;;;39.50;1.00;;;;;;5049072;28;20181;-73
2023/06/14 11:34:13;;;;;;;6.05;4.47;;;38.10;1.00;;;;;;5044618;28;20212;-73
2023/06/14 11:36:39;;;;;;;7.70;4.30;;;36.30;1.00;;;;;;5039115;28;20181;-74
2023/06/14 11:39:07;;;;;;;10.38;4.40;;;36.50;1.00;;;;;;5047378;28;20211;-73
2023/06/14 11:41:37;;;;;;;5.60;4.20;;;38.60;1.00;;;;;;5028037;28;20189;-72
2023/06/14 11:44:03;;;;;;;8.77;4.43;;;40.40;1.00;;;;;;5039494;28;20273;-73
2023/06/14 11:46:29;;;;;;;6.00;4.65;;;41.30;1.00;;;;;;5044917;28;20179;-73
2023/06/14 11:48:55;;;;;;;8.65;4.57;;;40.80;1.00;;;;;;5036883;28;20323;-73
2023/06/14 11:51:20;;;;;;;6.10;4.20;;;40.30;1.00;;;;;;5036736;28;20197;-72
2023/06/14 11:53:46;;;;;;;6.70;4.13;;;41.00;1.00;;;;;;5028391;28;20192;-75
2023/06/14 11:56:12;;;;;;;5.60;3.92;;;41.70;1.00;;;;;;5041366;28;20182;-74
2023/06/14 11:58:38;;;;;;;5.10;3.67;;;41.70;1.00;;;;;;5038929;28;20683;-76
2023/06/14 12:01:04;;;;;;;6.07;4.38;;;40.20;1.00;;;;;;5031812;28;20186;-76
2023/06/14 12:03:29;;;;;;;5.70;4.35;;;38.50;1.00;;;;;;5046339;28;20209;-73
2023/06/14 12:06:08;;;;;;;7.43;4.85;;;37.80;1.00;;;;;;5044592;28;20203;-76
2023/06/14 12:08:41;;;;;;;6.22;4.22;;;39.20;1.00;;;;;;5040532;28;20204;-74
2023/06/14 12:11:10;;;;;;;5.22;4.00;;;39.50;1.00;;;;;;5047886;28;20550;-73
2023/06/14 12:13:39;;;;;;;7.85;4.68;;;38.50;1.00;;;;;;5039470;28;20740;-73
2023/06/14 12:16:10;;;;;;;8.20;4.43;;;37.50;1.00;;;;;;5045211;28;20192;-74
2023/06/14 12:18:37;;;;;;;9.75;4.95;;;36.70;1.00;;;;;;5047873;28;20199;-73
2023/06/14 12:21:06;;;;;;;6.00;4.40;;;37.20;1.00;;;;;;5047020;28;20683;-74
2023/06/14 12:23:49;;;;;;;8.57;4.70;;;38.00;1.00;;;;;;5039783;28;20502;-73
2023/06/14 12:26:19;;;;;;;8.73;4.22;;;39.30;1.00;;;;;;5048136;28;20267;-73
2023/06/14 12:28:46;;;;;;;5.82;4.22;;;40.10;1.00;;;;;;5045757;28;20271;-72
2023/06/14 12:31:13;;;;;;;8.32;4.65;;;40.00;1.00;;;;;;5028030;28;20185;-72
2023/06/14 12:33:40;;;;;;;5.85;4.57;;;40.20;1.00;;;;;;5040987;28;20276;-72
2023/06/14 12:36:08;;;;;;;10.40;4.68;;;39.20;1.00;;;;;;5038584;28;20188;-73
2023/06/14 12:38:33;;;;;;;6.18;4.55;;;37.10;1.00;;;;;;5042028;28;20203;-72
2023/06/14 12:40:59;;;;;;;6.18;4.53;;;35.10;1.00;;;;;;5031528;28;20606;-73
2023/06/14 12:43:25;;;;;;;7.97;4.82;;;33.80;1.00;;;;;;5045602;28;20650;-74
2023/06/14 12:45:51;;;;;;;7.30;4.97;;;33.00;1.00;;;;;;5034016;28;20250;-73
2023/06/14 12:48:16;;;;;;;5.80;4.75;;;32.70;1.00;;;;;;5048357;28;20204;-74
2023/06/14 12:50:42;;;;;;;7.00;4.93;;;32.20;1.00;;;;;;5042222;28;20703;-72
2023/06/14 12:53:08;;;;;;;6.63;4.85;;;32.80;1.00;;;;;;5033594;28;20271;-73